Aviation Digital Data Service (ADDS)

Output produced by METARs form (1817 UTC 20 January 2019)
found at http://www.aviationweather.gov/metar/data/
 
TAF MHLC 201640Z 2018/2118 25008KT 6000 RA SCT022TCU BKN080 TX25/2017Z
TN19/2112Z 
     TEMPO 2023/2105 18014KT 3000 +RA FEW008 SCT020TCU OVC070 
     BECMG 2105/2107 35008KT 6000 VCSH
       
TAF MHLM 201640Z 2018/2118 35008KT 9999 SCT026TCU BKN080 TX29/2020Z TN19/2112Z 
     BECMG 2020/2022 8000 VCSH 
     TEMPO 2023/2105 4000 -RA FEW006 SCT024TCU OVC070 
     BECMG 2105/2107 8000 VCSH
       
TAF MHRO 201640Z 2018/2118 33008KT 7000 VCSH SCT022TCU SCT090 TX28/2018Z
TN23/2112Z 
     TEMPO 2020/2102 33022KT 5000 -TSRA SCT020CB BKN080 
     BECMG 2102/2104 8000 VCSH
       
TAF MHTG 201640Z 2018/2118 36012KT 8000 VCSH SCT028 SCT080 TX25/2020Z TN12/2112Z

     TEMPO 2020/2101 6000 -RA SCT028 BKN080 
     BECMG 2101/2103 8000 VCSH 
     BECMG 2111/2112 FEW008 BKN026